Time;durP1;ratioP1;P1;durP2;ratioP2;P2;SDS_P1;SDS_P2;PMS_P1;PMS_P2;Temp;Humidity;BMP_temperature;BMP_pressure;BME280_temperature;BME280_humidity;BME280_pressure;Samples;Min_cycle;Max_cycle;Signal;HPM_P1;HPM_P2
2024/04/15 00:00:19;;;;;;;5.50;3.07;;;12.80;99.90;;;;;;5435983;26;20382;-65
2024/04/15 00:02:45;;;;;;;5.40;3.00;;;12.80;99.90;;;;;;5434926;26;20280;-65
2024/04/15 00:05:11;;;;;;;6.80;3.30;;;12.80;99.90;;;;;;5435874;26;20817;-65
2024/04/15 00:07:37;;;;;;;7.80;2.97;;;12.80;99.90;;;;;;5438665;26;20276;-65
2024/04/15 00:10:03;;;;;;;4.67;3.20;;;12.70;99.90;;;;;;5432819;26;20379;-64
2024/04/15 00:12:29;;;;;;;7.57;3.53;;;12.60;99.90;;;;;;5434055;26;20673;-65
2024/04/15 00:14:54;;;;;;;4.40;3.20;;;12.60;99.90;;;;;;5429966;26;20436;-65
2024/04/15 00:17:20;;;;;;;4.77;3.47;;;12.60;99.90;;;;;;5435867;26;20229;-65
2024/04/15 00:19:46;;;;;;;4.00;3.47;;;12.60;99.90;;;;;;5431443;26;20264;-65
2024/04/15 00:22:11;;;;;;;4.90;3.20;;;12.40;99.90;;;;;;5434578;26;20773;-65
2024/04/15 00:24:37;;;;;;;4.10;3.07;;;12.40;99.90;;;;;;5433985;26;20242;-65
2024/04/15 00:27:03;;;;;;;6.13;3.63;;;12.40;99.90;;;;;;5433006;26;20764;-65
2024/04/15 00:29:29;;;;;;;3.53;3.23;;;12.50;99.90;;;;;;5434726;26;20289;-65
2024/04/15 00:31:54;;;;;;;3.77;3.00;;;12.40;99.90;;;;;;5438854;26;20511;-65
2024/04/15 00:34:20;;;;;;;6.53;3.50;;;12.40;99.90;;;;;;5438716;26;20231;-65
2024/04/15 00:36:46;;;;;;;5.73;3.47;;;12.40;99.90;;;;;;5439314;26;20246;-65
2024/04/15 00:39:12;;;;;;;4.13;3.50;;;12.40;99.90;;;;;;5439718;26;20500;-65
2024/04/15 00:41:37;;;;;;;4.20;3.80;;;12.40;99.90;;;;;;5436661;26;20690;-65
2024/04/15 00:44:03;;;;;;;5.30;3.60;;;12.40;99.90;;;;;;5438659;26;20229;-65
2024/04/15 00:46:30;;;;;;;5.07;3.97;;;12.40;99.90;;;;;;5439267;26;20238;-65
2024/04/15 00:48:56;;;;;;;5.60;3.50;;;12.30;99.90;;;;;;5438202;26;20246;-65
2024/04/15 00:51:23;;;;;;;7.20;4.00;;;12.30;99.90;;;;;;5437815;26;20452;-65
2024/04/15 00:53:50;;;;;;;5.50;3.63;;;12.30;99.90;;;;;;5437812;26;20565;-65
2024/04/15 00:56:19;;;;;;;6.23;4.33;;;12.30;99.90;;;;;;5363652;26;20577;-65
2024/04/15 00:58:45;;;;;;;6.90;3.80;;;12.30;99.90;;;;;;5436290;26;20456;-65
2024/04/15 01:01:12;;;;;;;5.73;4.03;;;12.30;99.90;;;;;;5439063;26;20549;-65
2024/04/15 01:03:38;;;;;;;5.23;3.73;;;12.20;99.90;;;;;;5434314;26;20242;-65
2024/04/15 01:06:05;;;;;;;6.93;3.93;;;12.20;99.90;;;;;;5436710;26;21427;-65
2024/04/15 01:08:34;;;;;;;5.93;4.50;;;12.10;99.90;;;;;;5439850;26;20467;-65
2024/04/15 01:11:00;;;;;;;8.50;4.27;;;12.10;99.90;;;;;;5438441;26;20508;-65
2024/04/15 01:13:25;;;;;;;5.20;4.70;;;12.10;99.90;;;;;;5441120;26;20498;-65
2024/04/15 01:15:58;;;;;;;5.07;4.10;;;12.00;99.90;;;;;;5439590;26;20322;-64
2024/04/15 01:18:24;;;;;;;5.87;4.80;;;12.00;99.90;;;;;;5440971;26;21425;-65
2024/04/15 01:20:53;;;;;;;5.23;4.60;;;12.00;99.90;;;;;;5439651;26;20936;-65
2024/04/15 01:23:22;;;;;;;7.10;4.70;;;12.00;99.90;;;;;;5438941;26;21222;-65
2024/04/15 01:25:48;;;;;;;7.83;4.87;;;11.90;99.90;;;;;;5439494;26;20503;-65
2024/04/15 01:28:17;;;;;;;5.73;4.80;;;12.00;99.90;;;;;;5440815;26;20713;-65
2024/04/15 01:30:43;;;;;;;7.57;5.20;;;11.90;99.90;;;;;;5439538;26;20474;-64
2024/04/15 01:33:08;;;;;;;6.50;5.00;;;11.90;99.90;;;;;;5440561;26;20507;-64
2024/04/15 01:35:34;;;;;;;5.30;4.83;;;11.90;99.90;;;;;;5439161;26;20281;-65
2024/04/15 01:38:00;;;;;;;7.63;5.20;;;11.80;99.90;;;;;;5439650;26;20237;-65
2024/04/15 01:40:25;;;;;;;6.10;5.57;;;11.80;99.90;;;;;;5438484;26;20294;-65
2024/04/15 01:42:51;;;;;;;7.10;5.53;;;11.70;99.90;;;;;;5439288;26;20276;-65
2024/04/15 01:45:17;;;;;;;5.50;4.67;;;11.70;99.90;;;;;;5440503;26;20238;-64
2024/04/15 01:47:44;;;;;;;7.60;5.23;;;11.70;99.90;;;;;;5438504;26;20238;-64
2024/04/15 01:50:10;;;;;;;8.27;4.70;;;11.60;99.90;;;;;;5438108;26;20782;-64
2024/04/15 01:52:36;;;;;;;6.20;5.20;;;11.60;99.90;;;;;;5440137;26;20455;-65
2024/04/15 01:55:02;;;;;;;7.80;5.23;;;11.50;99.90;;;;;;5438983;26;20238;-65
2024/04/15 01:57:27;;;;;;;6.97;5.70;;;11.50;99.90;;;;;;5439660;26;20315;-65
2024/04/15 01:59:53;;;;;;;8.67;5.43;;;11.50;99.90;;;;;;5438056;26;20264;-65
2024/04/15 02:02:19;;;;;;;6.40;5.60;;;11.40;99.90;;;;;;5439216;26;20272;-65
2024/04/15 02:04:44;;;;;;;9.97;5.57;;;11.30;99.90;;;;;;5438597;26;20245;-65
2024/04/15 02:07:10;;;;;;;8.43;6.00;;;11.30;99.90;;;;;;5439183;26;20268;-65
2024/04/15 02:09:36;;;;;;;8.33;6.20;;;11.30;99.90;;;;;;5439137;26;20229;-65
2024/04/15 02:12:01;;;;;;;6.90;6.30;;;11.30;99.90;;;;;;5439021;26;20238;-65
2024/04/15 02:14:27;;;;;;;10.60;7.20;;;11.30;99.90;;;;;;5439350;26;20782;-65
2024/04/15 02:16:53;;;;;;;9.40;7.40;;;11.30;99.90;;;;;;5437642;26;20233;-65
2024/04/15 02:19:18;;;;;;;10.23;7.93;;;11.40;99.90;;;;;;5438486;26;21181;-65
2024/04/15 02:21:44;;;;;;;13.53;8.83;;;11.40;99.90;;;;;;5434886;26;20272;-65
2024/04/15 02:24:13;;;;;;;11.33;8.80;;;11.40;99.90;;;;;;5439275;26;20327;-65
2024/04/15 02:26:39;;;;;;;13.90;9.50;;;11.40;99.90;;;;;;5435171;26;20242;-65
2024/04/15 02:29:05;;;;;;;13.00;9.33;;;11.40;99.90;;;;;;5438561;26;20512;-65
2024/04/15 02:31:31;;;;;;;12.87;9.13;;;11.40;99.90;;;;;;5438805;26;20277;-65
2024/04/15 02:33:56;;;;;;;9.23;8.30;;;11.40;99.90;;;;;;5437096;26;20258;-65
2024/04/15 02:36:22;;;;;;;11.67;10.43;;;11.40;99.90;;;;;;5438646;26;20681;-64
2024/04/15 02:38:49;;;;;;;10.57;9.20;;;11.40;99.90;;;;;;5437596;26;20256;-65
2024/04/15 02:41:15;;;;;;;13.93;9.57;;;11.40;99.90;;;;;;5436229;26;20241;-65
2024/04/15 02:43:40;;;;;;;19.07;10.30;;;11.30;99.90;;;;;;5436630;26;20463;-65
2024/04/15 02:46:06;;;;;;;10.30;9.23;;;11.40;99.90;;;;;;5438543;26;21153;-65
2024/04/15 02:48:32;;;;;;;10.90;9.47;;;11.40;99.90;;;;;;5393198;26;20284;-65
2024/04/15 02:50:59;;;;;;;12.90;10.40;;;11.30;99.90;;;;;;5436485;26;20278;-65
2024/04/15 02:53:25;;;;;;;13.17;10.70;;;11.30;99.90;;;;;;5436398;26;20281;-64
2024/04/15 02:55:53;;;;;;;14.67;12.27;;;11.40;99.90;;;;;;5436523;26;20519;-64
2024/04/15 02:58:19;;;;;;;11.57;10.37;;;11.30;99.90;;;;;;5438031;26;20996;-65
2024/04/15 03:00:44;;;;;;;12.57;10.93;;;11.40;99.90;;;;;;5433804;26;20459;-65
2024/04/15 03:03:10;;;;;;;11.53;9.93;;;11.40;99.90;;;;;;5438207;26;20505;-65
2024/04/15 03:05:45;;;;;;;14.03;11.77;;;11.40;99.90;;;;;;5437622;26;21060;-65
2024/04/15 03:08:12;;;;;;;15.80;11.40;;;11.40;99.90;;;;;;5437742;26;20575;-65
2024/04/15 03:10:38;;;;;;;12.47;10.93;;;11.30;99.90;;;;;;5436693;26;20506;-65
2024/04/15 03:13:03;;;;;;;15.73;11.70;;;11.30;99.90;;;;;;5438048;26;20467;-65
2024/04/15 03:15:31;;;;;;;14.13;12.00;;;11.30;99.90;;;;;;5437449;26;20455;-64
2024/04/15 03:17:57;;;;;;;15.70;12.97;;;11.30;99.90;;;;;;5436337;26;20863;-65
2024/04/15 03:20:26;;;;;;;16.20;12.90;;;11.30;99.90;;;;;;5436610;26;20451;-65
2024/04/15 03:22:51;;;;;;;14.13;12.50;;;11.40;99.90;;;;;;5434039;26;20451;-65
2024/04/15 03:25:18;;;;;;;15.30;12.97;;;11.40;99.90;;;;;;5436894;26;20459;-64
2024/04/15 03:27:45;;;;;;;16.00;12.30;;;11.30;99.90;;;;;;5435254;26;20245;-65
2024/04/15 03:30:12;;;;;;;17.10;13.40;;;11.30;99.90;;;;;;5435442;26;20504;-65
2024/04/15 03:32:37;;;;;;;17.30;13.60;;;11.30;99.90;;;;;;5435281;26;20462;-65
2024/04/15 03:35:04;;;;;;;15.83;13.47;;;11.20;99.90;;;;;;5435242;26;20957;-65
2024/04/15 03:37:29;;;;;;;15.87;14.20;;;11.20;99.90;;;;;;5436464;26;20333;-65
2024/04/15 03:39:55;;;;;;;17.80;12.93;;;11.20;99.90;;;;;;5433273;26;20448;-64
2024/04/15 03:42:21;;;;;;;16.60;12.70;;;11.10;99.90;;;;;;5436867;26;20736;-64
2024/04/15 03:44:47;;;;;;;16.10;13.00;;;11.10;99.90;;;;;;5434874;26;20238;-64
2024/04/15 03:47:13;;;;;;;15.60;12.43;;;11.10;99.90;;;;;;5436405;26;20831;-65
2024/04/15 03:49:38;;;;;;;14.80;12.10;;;11.10;99.90;;;;;;5435130;26;20452;-65
2024/04/15 03:52:04;;;;;;;13.00;11.63;;;11.00;99.90;;;;;;5436547;26;20637;-65
2024/04/15 03:54:33;;;;;;;14.10;12.63;;;11.00;99.90;;;;;;5433352;26;20268;-65
2024/04/15 03:56:59;;;;;;;15.30;12.97;;;11.10;99.90;;;;;;5435674;26;21015;-64
2024/04/15 03:59:24;;;;;;;14.33;12.40;;;11.00;99.90;;;;;;5435671;26;20447;-65
2024/04/15 04:01:50;;;;;;;15.10;12.23;;;10.90;99.90;;;;;;5431817;26;20234;-65
2024/04/15 04:04:15;;;;;;;14.47;12.43;;;11.00;99.90;;;;;;5440386;26;20276;-65
2024/04/15 04:06:41;;;;;;;14.73;12.27;;;11.00;99.90;;;;;;5437206;26;20283;-65
2024/04/15 04:09:07;;;;;;;13.27;10.77;;;11.00;99.90;;;;;;5439438;26;20359;-65
2024/04/15 04:11:32;;;;;;;13.43;12.00;;;11.00;99.90;;;;;;5438821;26;20279;-64
2024/04/15 04:13:58;;;;;;;11.70;10.60;;;10.90;99.90;;;;;;5439483;26;20236;-64
2024/04/15 04:16:24;;;;;;;11.60;10.27;;;10.90;99.90;;;;;;5438646;26;20788;-65
2024/04/15 04:18:49;;;;;;;11.03;9.80;;;10.90;99.90;;;;;;5437223;26;20241;-64
2024/04/15 04:21:15;;;;;;;11.23;9.60;;;10.90;99.90;;;;;;5437912;26;20234;-65
2024/04/15 04:23:41;;;;;;;11.43;9.43;;;10.80;99.90;;;;;;5437190;26;20230;-64
2024/04/15 04:26:06;;;;;;;12.20;9.53;;;10.80;99.90;;;;;;5438854;26;20234;-64
2024/04/15 04:28:33;;;;;;;15.70;10.20;;;10.80;99.90;;;;;;5394267;26;20735;-64
2024/04/15 04:31:03;;;;;;;11.30;9.40;;;10.80;99.90;;;;;;5437429;26;21080;-64
2024/04/15 04:33:32;;;;;;;10.47;8.43;;;10.70;99.90;;;;;;5436824;26;20503;-65
2024/04/15 04:35:58;;;;;;;12.67;8.77;;;10.70;99.90;;;;;;5436923;26;21059;-64
2024/04/15 04:38:24;;;;;;;9.03;8.13;;;10.70;99.90;;;;;;5439265;26;21134;-65
2024/04/15 04:41:00;;;;;;;13.67;8.83;;;10.50;99.90;;;;;;5436984;26;20455;-64
2024/04/15 04:43:26;;;;;;;13.00;8.07;;;10.60;99.90;;;;;;5421421;26;20657;-65
2024/04/15 04:45:53;;;;;;;13.87;8.53;;;10.60;99.90;;;;;;5428492;26;21006;-65
2024/04/15 04:48:22;;;;;;;10.87;8.43;;;10.60;99.90;;;;;;5434466;26;20565;-65
2024/04/15 04:50:47;;;;;;;10.87;8.80;;;10.60;99.90;;;;;;5436062;26;20455;-65
2024/04/15 04:53:13;;;;;;;13.30;9.00;;;10.50;99.90;;;;;;5439031;26;20467;-64
2024/04/15 04:55:39;;;;;;;9.57;7.70;;;10.60;99.90;;;;;;5427829;26;20241;-65
2024/04/15 04:58:06;;;;;;;11.23;8.20;;;10.60;99.90;;;;;;5437477;26;20280;-65
2024/04/15 05:00:31;;;;;;;10.23;7.70;;;10.60;99.90;;;;;;5435987;26;20229;-65
2024/04/15 05:02:57;;;;;;;13.33;8.53;;;10.70;99.90;;;;;;5438410;26;20569;-64
2024/04/15 05:05:23;;;;;;;12.37;10.60;;;10.70;99.90;;;;;;5431351;26;20922;-65
2024/04/15 05:07:48;;;;;;;11.90;8.50;;;10.70;99.90;;;;;;5435497;26;20265;-65
2024/04/15 05:10:14;;;;;;;9.63;8.60;;;10.60;99.90;;;;;;5437711;26;20234;-64
2024/04/15 05:12:40;;;;;;;11.73;7.97;;;10.70;99.90;;;;;;5433428;26;20331;-65
2024/04/15 05:15:07;;;;;;;13.40;9.47;;;10.70;99.90;;;;;;5436551;26;20881;-65
2024/04/15 05:17:34;;;;;;;9.37;8.37;;;10.80;99.90;;;;;;5436452;26;20793;-65
2024/04/15 05:20:00;;;;;;;10.40;8.93;;;10.80;99.90;;;;;;5435618;26;20517;-65
2024/04/15 05:22:25;;;;;;;10.33;8.23;;;10.70;99.90;;;;;;5434267;26;20455;-65
2024/04/15 05:24:56;;;;;;;13.27;8.43;;;10.70;99.90;;;;;;5437543;26;20599;-65
2024/04/15 05:27:22;;;;;;;13.43;8.00;;;10.70;99.90;;;;;;5434610;26;20330;-65
2024/04/15 05:29:47;;;;;;;9.40;7.07;;;10.70;99.90;;;;;;5434442;26;20801;-65
2024/04/15 05:32:13;;;;;;;11.07;8.53;;;10.60;99.90;;;;;;5437188;26;20460;-65
2024/04/15 05:34:39;;;;;;;9.80;8.57;;;10.40;99.90;;;;;;5434939;26;20814;-65
2024/04/15 05:37:08;;;;;;;8.90;8.00;;;10.40;99.90;;;;;;5437240;26;20238;-65
2024/04/15 05:39:34;;;;;;;10.83;7.90;;;10.40;99.90;;;;;;5434840;26;20265;-64
2024/04/15 05:41:59;;;;;;;9.63;7.73;;;10.50;99.90;;;;;;5434934;26;20466;-65
2024/04/15 05:44:25;;;;;;;9.80;7.60;;;10.70;99.90;;;;;;5427391;26;20456;-65
2024/04/15 05:46:51;;;;;;;8.33;7.23;;;10.80;99.90;;;;;;5435744;26;20327;-64
2024/04/15 05:49:20;;;;;;;7.70;6.87;;;10.80;99.90;;;;;;5434040;26;20455;-65
2024/04/15 05:51:46;;;;;;;10.03;6.80;;;10.80;99.90;;;;;;5436454;26;20501;-65
2024/04/15 05:54:12;;;;;;;9.50;6.30;;;10.80;99.90;;;;;;5433624;26;20465;-65
2024/04/15 05:56:37;;;;;;;10.53;7.10;;;10.80;99.90;;;;;;5435325;26;20459;-65
2024/04/15 05:59:03;;;;;;;10.50;6.20;;;10.90;99.90;;;;;;5436902;26;20233;-65
2024/04/15 06:01:29;;;;;;;12.17;5.67;;;11.00;99.90;;;;;;5430565;26;20251;-65
2024/04/15 06:03:54;;;;;;;10.50;5.13;;;11.00;99.90;;;;;;5434737;26;20283;-65
2024/04/15 06:06:20;;;;;;;9.40;5.57;;;11.00;99.90;;;;;;5433328;26;20237;-64
2024/04/15 06:08:46;;;;;;;7.90;5.40;;;11.00;99.90;;;;;;5435209;26;20230;-64
2024/04/15 06:11:11;;;;;;;8.90;4.70;;;11.10;99.90;;;;;;5431764;26;20763;-64
2024/04/15 06:13:37;;;;;;;10.83;5.50;;;11.00;99.90;;;;;;5435022;26;20249;-65
2024/04/15 06:16:03;;;;;;;7.20;5.00;;;11.00;99.90;;;;;;5427118;26;20305;-65
2024/04/15 06:18:29;;;;;;;9.90;5.13;;;11.00;99.90;;;;;;5419623;26;20293;-65
2024/04/15 06:20:54;;;;;;;8.37;5.10;;;10.90;99.90;;;;;;5435387;26;20467;-65
2024/04/15 06:23:20;;;;;;;5.50;3.87;;;10.90;99.90;;;;;;5435837;26;20303;-65
2024/04/15 06:25:52;;;;;;;9.50;4.47;;;10.80;99.90;;;;;;5417849;26;20237;-64
2024/04/15 06:28:18;;;;;;;7.37;4.97;;;10.90;99.90;;;;;;5435696;26;20234;-64
2024/04/15 06:30:45;;;;;;;10.00;5.60;;;11.00;99.90;;;;;;5431186;26;20503;-65
2024/04/15 06:33:11;;;;;;;12.57;4.50;;;11.00;99.90;;;;;;5437660;26;20277;-64
2024/04/15 06:35:37;;;;;;;8.20;4.83;;;11.00;99.90;;;;;;5425310;26;20456;-64
2024/04/15 06:38:02;;;;;;;7.10;4.40;;;10.90;99.90;;;;;;5428064;26;20242;-64
2024/04/15 06:40:30;;;;;;;10.27;5.27;;;10.80;99.90;;;;;;5430417;26;20350;-64
2024/04/15 06:42:56;;;;;;;9.57;4.70;;;10.90;99.90;;;;;;5432473;26;20233;-64
2024/04/15 06:45:21;;;;;;;8.40;5.70;;;10.90;99.90;;;;;;5431477;26;20515;-64
2024/04/15 06:47:49;;;;;;;10.57;5.80;;;10.90;99.90;;;;;;5431317;26;20242;-65
2024/04/15 06:50:15;;;;;;;9.70;5.60;;;10.90;99.90;;;;;;5430521;26;20234;-64
2024/04/15 06:52:41;;;;;;;6.00;5.10;;;11.00;99.90;;;;;;5430427;26;20847;-65
2024/04/15 06:55:07;;;;;;;7.23;4.90;;;11.00;99.90;;;;;;5426479;26;20451;-64
2024/04/15 06:57:32;;;;;;;7.33;4.70;;;11.10;99.90;;;;;;5433923;26;20225;-64
2024/04/15 06:59:59;;;;;;;10.40;5.70;;;11.30;99.90;;;;;;5432013;26;20385;-64
2024/04/15 07:02:25;;;;;;;12.97;6.50;;;11.30;99.90;;;;;;5433448;26;20238;-64
2024/04/15 07:04:51;;;;;;;7.70;4.70;;;11.30;99.90;;;;;;5434734;26;20506;-64
2024/04/15 07:07:25;;;;;;;7.00;4.90;;;11.20;99.90;;;;;;5431947;26;20237;-65
2024/04/15 07:09:51;;;;;;;6.83;4.57;;;11.10;99.90;;;;;;5434321;26;21370;-64
2024/04/15 07:12:17;;;;;;;7.87;4.70;;;11.00;99.90;;;;;;5434488;26;20529;-64
2024/04/15 07:14:43;;;;;;;9.23;4.30;;;11.00;99.90;;;;;;5430479;26;20455;-64
2024/04/15 07:17:09;;;;;;;9.50;4.73;;;11.00;99.90;;;;;;5436074;26;20267;-64
2024/04/15 07:19:35;;;;;;;9.60;4.47;;;11.00;99.90;;;;;;5391386;26;21187;-65
2024/04/15 07:22:00;;;;;;;6.70;4.20;;;11.10;99.90;;;;;;5431612;26;20244;-64
2024/04/15 07:24:26;;;;;;;7.90;4.80;;;11.10;99.90;;;;;;5402655;26;20667;-64
2024/04/15 07:26:52;;;;;;;5.90;4.17;;;11.10;99.90;;;;;;5432680;26;20249;-65
2024/04/15 07:29:17;;;;;;;6.40;4.33;;;11.10;99.90;;;;;;5432515;26;20280;-64
2024/04/15 07:31:43;;;;;;;7.60;5.27;;;11.20;99.90;;;;;;5431185;26;20229;-64
2024/04/15 07:34:09;;;;;;;4.70;4.17;;;11.30;99.90;;;;;;5435234;26;20234;-65
2024/04/15 07:36:34;;;;;;;8.03;5.03;;;11.30;99.90;;;;;;5432986;26;21064;-65
2024/04/15 07:39:00;;;;;;;8.40;4.47;;;11.30;99.90;;;;;;5395479;26;20253;-64
2024/04/15 07:41:26;;;;;;;6.33;4.67;;;11.30;99.90;;;;;;5440236;26;20273;-65
2024/04/15 07:43:52;;;;;;;10.23;4.70;;;11.40;99.90;;;;;;5441671;26;20237;-64
2024/04/15 07:46:17;;;;;;;8.00;5.43;;;11.50;99.90;;;;;;5440705;26;20229;-64
2024/04/15 07:48:43;;;;;;;6.17;4.37;;;11.60;99.90;;;;;;5439880;26;20463;-65
2024/04/15 07:51:09;;;;;;;6.87;3.90;;;11.70;99.90;;;;;;5440440;26;20961;-64
2024/04/15 07:53:34;;;;;;;7.17;3.83;;;11.90;99.90;;;;;;5439871;26;20264;-65
2024/04/15 07:56:00;;;;;;;13.23;4.83;;;12.00;99.90;;;;;;5440201;26;20234;-65
2024/04/15 07:58:26;;;;;;;6.20;3.63;;;12.00;99.90;;;;;;5407298;26;20268;-65
2024/04/15 08:00:53;;;;;;;6.27;3.60;;;12.10;99.90;;;;;;5440327;26;20280;-64
2024/04/15 08:03:18;;;;;;;8.67;3.93;;;12.30;99.90;;;;;;5438038;26;20780;-64
2024/04/15 08:05:44;;;;;;;6.20;3.40;;;12.20;99.90;;;;;;5440073;26;20507;-64
2024/04/15 08:08:10;;;;;;;7.33;3.20;;;12.10;99.90;;;;;;5395269;26;20233;-65
2024/04/15 08:10:37;;;;;;;9.50;3.83;;;12.10;99.90;;;;;;5439445;26;20269;-65
2024/04/15 08:13:03;;;;;;;4.40;3.27;;;12.10;99.90;;;;;;5441370;26;20450;-64
2024/04/15 08:15:31;;;;;;;6.33;3.27;;;12.20;99.90;;;;;;5437248;26;21102;-64
2024/04/15 08:17:57;;;;;;;8.03;3.10;;;12.30;99.90;;;;;;5439954;26;20575;-63
2024/04/15 08:20:23;;;;;;;8.27;3.27;;;12.30;99.90;;;;;;5436418;26;20521;-63
2024/04/15 08:22:49;;;;;;;8.73;2.93;;;12.30;99.90;;;;;;5439932;26;20969;-65
2024/04/15 08:25:16;;;;;;;5.87;3.23;;;12.40;99.90;;;;;;5439420;26;20367;-65
2024/04/15 08:27:42;;;;;;;3.70;2.47;;;12.40;99.90;;;;;;5439844;26;20274;-64
2024/04/15 08:30:08;;;;;;;5.90;3.20;;;12.50;99.90;;;;;;5440038;26;20467;-65
2024/04/15 08:32:34;;;;;;;5.70;3.27;;;12.50;99.90;;;;;;5439152;26;20226;-65
2024/04/15 08:35:01;;;;;;;6.23;2.50;;;12.60;99.90;;;;;;5439356;26;20523;-64
2024/04/15 08:37:27;;;;;;;4.63;2.67;;;12.70;99.90;;;;;;5438385;26;20568;-64
2024/04/15 08:39:52;;;;;;;5.00;2.83;;;12.70;99.90;;;;;;5439498;26;20455;-64
2024/04/15 08:42:37;;;;;;;5.87;2.53;;;12.70;99.90;;;;;;5438344;26;20276;-64
2024/04/15 08:45:06;;;;;;;8.17;2.60;;;12.60;99.90;;;;;;5424042;26;20241;-64
2024/04/15 08:47:34;;;;;;;7.90;2.77;;;12.70;99.90;;;;;;5438327;26;20463;-65
2024/04/15 08:50:03;;;;;;;6.37;2.50;;;12.80;99.90;;;;;;5438172;26;20451;-65
2024/04/15 08:52:28;;;;;;;6.43;2.70;;;12.80;99.90;;;;;;5403765;26;20448;-65
2024/04/15 08:54:54;;;;;;;3.63;2.10;;;12.80;99.90;;;;;;5438936;26;20508;-65
2024/04/15 08:57:21;;;;;;;2.90;1.90;;;12.80;99.90;;;;;;5438535;26;20594;-65
2024/04/15 08:59:50;;;;;;;3.20;2.10;;;12.80;99.90;;;;;;5438086;26;20282;-65
2024/04/15 09:02:16;;;;;;;5.43;1.93;;;12.70;99.90;;;;;;5437143;26;20529;-65
2024/04/15 09:04:43;;;;;;;5.60;2.50;;;12.70;99.90;;;;;;5438977;26;20472;-65
2024/04/15 09:07:09;;;;;;;4.77;2.33;;;12.80;99.90;;;;;;5436369;26;20463;-65
2024/04/15 09:09:34;;;;;;;7.00;2.30;;;12.80;99.90;;;;;;5439028;26;20447;-65
2024/04/15 09:12:01;;;;;;;8.20;2.97;;;12.80;99.90;;;;;;5438768;26;20573;-65
2024/04/15 09:14:26;;;;;;;5.53;2.03;;;12.80;99.90;;;;;;5438579;26;21068;-65
2024/04/15 09:16:53;;;;;;;5.77;2.70;;;12.90;99.90;;;;;;5438399;26;20456;-65
2024/04/15 09:19:18;;;;;;;4.73;2.20;;;13.00;99.90;;;;;;5438140;26;21245;-65
2024/04/15 09:21:44;;;;;;;4.40;2.00;;;13.20;99.90;;;;;;5437037;26;20459;-65
2024/04/15 09:24:11;;;;;;;4.60;2.10;;;13.30;99.90;;;;;;5438028;26;20229;-65
2024/04/15 09:26:36;;;;;;;9.63;4.00;;;13.30;99.90;;;;;;5439219;26;20835;-65
2024/04/15 09:29:02;;;;;;;4.27;2.10;;;13.30;99.90;;;;;;5437665;26;20559;-65
2024/04/15 09:31:28;;;;;;;7.23;2.23;;;13.10;99.90;;;;;;5437971;26;20238;-65
2024/04/15 09:33:54;;;;;;;6.00;2.00;;;13.10;99.90;;;;;;5437519;26;20573;-65
2024/04/15 09:36:19;;;;;;;5.53;2.17;;;13.10;99.90;;;;;;5437232;26;20325;-65
2024/04/15 09:38:46;;;;;;;5.63;2.57;;;13.20;99.90;;;;;;5436230;26;20241;-65
2024/04/15 09:41:12;;;;;;;4.60;1.67;;;13.20;99.90;;;;;;5437543;26;20242;-65
2024/04/15 09:43:39;;;;;;;6.23;2.17;;;13.30;99.90;;;;;;5439035;26;20506;-64
2024/04/15 09:46:05;;;;;;;2.70;1.80;;;13.30;99.90;;;;;;5435718;26;21240;-65
2024/04/15 09:48:31;;;;;;;5.40;2.03;;;13.30;99.90;;;;;;5437341;26;20475;-65
2024/04/15 09:51:04;;;;;;;3.53;2.00;;;13.30;99.90;;;;;;5439794;26;20459;-65
2024/04/15 09:53:38;;;;;;;4.10;2.53;;;13.30;99.90;;;;;;5437214;26;20570;-65
2024/04/15 09:56:23;;;;;;;5.00;2.50;;;13.20;99.90;;;;;;5439034;26;20511;-65
2024/04/15 09:58:55;;;;;;;5.97;2.30;;;13.20;99.90;;;;;;5437137;26;20490;-66
2024/04/15 10:01:25;;;;;;;6.70;2.13;;;13.10;99.90;;;;;;5404662;26;20451;-64
2024/04/15 10:03:52;;;;;;;4.17;2.60;;;13.10;99.90;;;;;;5435831;26;21069;-65
2024/04/15 10:06:51;;;;;;;5.10;1.57;;;13.20;99.90;;;;;;5436724;26;21418;-65
2024/04/15 10:09:20;;;;;;;3.97;1.67;;;13.30;99.90;;;;;;5437829;26;20459;-65
2024/04/15 10:11:49;;;;;;;3.37;1.80;;;13.50;99.90;;;;;;5436727;26;20443;-65
2024/04/15 10:14:15;;;;;;;8.13;2.77;;;13.70;99.90;;;;;;5435176;26;20463;-65
2024/04/15 10:16:49;;;;;;;3.00;1.70;;;13.70;99.90;;;;;;5436968;26;20455;-65
2024/04/15 10:19:32;;;;;;;4.03;1.53;;;13.60;99.90;;;;;;5405204;26;20475;-65
2024/04/15 10:22:00;;;;;;;6.53;2.00;;;13.60;99.90;;;;;;5436058;26;20468;-65
2024/04/15 10:24:26;;;;;;;7.17;2.37;;;13.60;99.90;;;;;;5436105;26;20483;-64
2024/04/15 10:26:53;;;;;;;5.00;2.20;;;13.60;99.90;;;;;;5437329;26;20504;-64
2024/04/15 10:29:24;;;;;;;4.50;2.10;;;13.70;99.90;;;;;;5436543;26;20447;-64
2024/04/15 10:31:55;;;;;;;4.90;2.30;;;13.80;99.90;;;;;;5434373;26;20508;-64
2024/04/15 10:34:25;;;;;;;7.37;2.67;;;13.80;99.90;;;;;;5436213;26;20471;-64
2024/04/15 10:36:55;;;;;;;3.30;2.20;;;13.80;99.90;;;;;;5435099;26;20475;-64
2024/04/15 10:39:22;;;;;;;4.13;2.33;;;13.80;99.90;;;;;;5434584;26;21232;-64
2024/04/15 10:41:49;;;;;;;3.60;2.23;;;13.80;99.90;;;;;;5405033;26;20543;-65
2024/04/15 10:44:15;;;;;;;3.03;1.83;;;13.80;99.90;;;;;;5433939;26;20444;-64
2024/04/15 10:46:45;;;;;;;5.63;2.00;;;13.80;99.90;;;;;;5435561;26;20503;-64
2024/04/15 10:49:14;;;;;;;10.47;2.90;;;13.90;99.90;;;;;;5433898;26;20467;-65
2024/04/15 10:51:39;;;;;;;3.73;2.00;;;14.00;99.90;;;;;;5434914;26;20459;-64
2024/04/15 10:54:05;;;;;;;4.80;2.30;;;14.10;99.90;;;;;;5436045;26;20860;-65
2024/04/15 10:56:31;;;;;;;3.90;2.40;;;14.20;99.90;;;;;;5435614;26;20346;-65
2024/04/15 10:58:57;;;;;;;5.10;2.30;;;14.20;99.90;;;;;;5437692;26;20230;-65
2024/04/15 11:01:22;;;;;;;4.97;2.10;;;14.10;99.90;;;;;;5436239;26;20455;-64
2024/04/15 11:03:50;;;;;;;3.70;2.13;;;13.90;99.90;;;;;;5435253;26;20289;-65
2024/04/15 11:06:19;;;;;;;6.27;1.90;;;13.90;99.90;;;;;;5433094;26;20288;-64
2024/04/15 11:08:45;;;;;;;8.50;2.77;;;14.00;99.90;;;;;;5390561;26;20513;-65
2024/04/15 11:11:12;;;;;;;4.17;2.20;;;14.10;99.90;;;;;;5432625;26;20782;-64
2024/04/15 11:13:41;;;;;;;4.10;2.53;;;14.10;99.90;;;;;;5434705;26;20801;-65
2024/04/15 11:16:11;;;;;;;4.00;2.30;;;14.20;99.90;;;;;;5392471;26;20807;-65
2024/04/15 11:18:37;;;;;;;6.23;2.17;;;14.10;99.90;;;;;;5433630;26;20487;-65
2024/04/15 11:21:03;;;;;;;6.70;2.30;;;14.10;99.40;;;;;;5433729;26;20459;-65
2024/04/15 11:23:29;;;;;;;4.93;2.40;;;14.00;99.90;;;;;;5434591;26;20245;-64
2024/04/15 11:25:58;;;;;;;4.37;2.43;;;14.20;99.90;;;;;;5433892;26;20458;-65
2024/04/15 11:28:25;;;;;;;6.07;2.30;;;14.20;99.50;;;;;;5434870;26;20455;-64
2024/04/15 11:30:51;;;;;;;4.00;2.30;;;14.30;98.40;;;;;;5432418;26;20504;-64
2024/04/15 11:33:19;;;;;;;3.60;2.23;;;14.20;98.50;;;;;;5435728;26;20451;-64
2024/04/15 11:35:52;;;;;;;18.03;4.20;;;14.20;98.40;;;;;;5432637;26;20466;-64
2024/04/15 11:38:21;;;;;;;3.07;1.97;;;14.10;98.40;;;;;;5437977;26;20511;-64
2024/04/15 11:40:51;;;;;;;4.93;2.70;;;14.10;98.10;;;;;;5433306;26;20510;-64
2024/04/15 11:43:17;;;;;;;4.63;1.90;;;14.10;98.20;;;;;;5433677;26;20475;-64
2024/04/15 11:45:53;;;;;;;5.07;2.37;;;14.10;98.50;;;;;;5432703;26;20467;-64
2024/04/15 11:48:24;;;;;;;4.10;2.10;;;14.20;98.70;;;;;;5434249;26;20447;-64
2024/04/15 11:50:52;;;;;;;4.33;2.53;;;14.20;98.20;;;;;;5433709;26;20467;-64
2024/04/15 11:53:24;;;;;;;8.30;3.03;;;14.20;98.60;;;;;;5402766;26;20452;-64
2024/04/15 11:55:54;;;;;;;3.23;2.10;;;14.20;98.40;;;;;;5434132;26;21093;-64
2024/04/15 11:58:21;;;;;;;4.73;2.30;;;14.20;98.70;;;;;;5433686;26;20802;-64
2024/04/15 12:00:47;;;;;;;3.30;2.27;;;14.30;98.90;;;;;;5434522;26;20612;-64
2024/04/15 12:03:13;;;;;;;2.17;1.77;;;14.40;98.20;;;;;;5434522;26;20475;-64
2024/04/15 12:05:40;;;;;;;5.50;2.30;;;14.50;98.40;;;;;;5432258;26;20501;-64
2024/04/15 12:08:07;;;;;;;7.27;2.03;;;14.50;98.70;;;;;;5431921;26;20517;-64
2024/04/15 12:10:34;;;;;;;3.00;2.63;;;14.50;98.30;;;;;;5433079;26;20459;-65
2024/04/15 12:13:00;;;;;;;5.00;2.00;;;14.70;98.80;;;;;;5433126;26;20457;-64
2024/04/15 12:15:26;;;;;;;4.03;1.73;;;14.60;97.60;;;;;;5430556;26;20502;-64
2024/04/15 12:17:52;;;;;;;4.93;2.27;;;14.60;97.20;;;;;;5434356;26;20463;-64
2024/04/15 12:20:18;;;;;;;4.30;1.70;;;14.70;97.60;;;;;;5433427;26;20230;-64
2024/04/15 12:22:44;;;;;;;4.23;1.93;;;14.80;98.80;;;;;;5434607;26;20359;-64
2024/04/15 12:25:10;;;;;;;4.63;1.80;;;14.70;97.20;;;;;;5425356;26;20475;-64
2024/04/15 12:27:36;;;;;;;4.17;1.80;;;14.70;97.40;;;;;;5434610;26;20317;-64
2024/04/15 12:30:04;;;;;;;9.73;1.80;;;14.60;96.70;;;;;;5434609;26;20945;-64
2024/04/15 12:32:31;;;;;;;4.60;1.50;;;14.40;97.30;;;;;;5432860;26;20516;-64
2024/04/15 12:34:57;;;;;;;6.30;2.10;;;14.40;96.70;;;;;;5431386;26;20854;-64
2024/04/15 12:37:22;;;;;;;3.10;1.53;;;14.30;97.20;;;;;;5436834;26;20515;-64
2024/04/15 12:39:48;;;;;;;5.70;1.87;;;14.30;96.80;;;;;;5438060;26;20237;-64